Prospect, Virginia
Current Conditions -  °F | °C
As of 11:55 PM on Monday 22 Dec 2014 (Local Time) from KFVX Reporting Station
Haze Haze  
Wind Chill: 33°   Ceiling: 200
Heat Index: 37°   Visibility: 2mi
Dew Point: 37°   Wind: 6mph
Humidity: 100%   Direction: 20°NNE
Pressure: 30.06"   Gusts: NA
Location:  37.3°N, 78.56°W
Report Text: KFVX 230455Z AUTO 02005KT 2SM BR OVC002 03/03 A3006 RMK AO2 T00300030 400400020
Loading
Personal Weather Stations






























Interactive Weather Map New forecast layout! Learn more

10-Day Weather Forecast

Advertisements
Track Severe Weather on mobile